sensor_id;sensor_type;location;lat;lon;timestamp;pressure;altitude;pressure_sealevel;temperature;humidity
76358;BME280;65185;21.060;105.826;2023-05-28T00:00:02;100834.72;;;28.65;80.60
76358;BME280;65185;21.060;105.826;2023-05-28T00:02:29;100834.59;;;28.66;81.12
76358;BME280;65185;21.060;105.826;2023-05-28T00:04:55;100839.69;;;28.69;81.66
76358;BME280;65185;21.060;105.826;2023-05-28T00:07:22;100839.81;;;28.68;79.85
76358;BME280;65185;21.060;105.826;2023-05-28T00:09:50;100833.72;;;28.66;79.43
76358;BME280;65185;21.060;105.826;2023-05-28T00:12:17;100830.84;;;28.69;79.93
76358;BME280;65185;21.060;105.826;2023-05-28T00:14:44;100848.31;;;28.73;80.88
76358;BME280;65185;21.060;105.826;2023-05-28T00:17:12;100850.84;;;28.74;80.89
76358;BME280;65185;21.060;105.826;2023-05-28T00:19:39;100860.53;;;28.75;79.53
76358;BME280;65185;21.060;105.826;2023-05-28T00:22:06;100862.88;;;28.80;79.61
76358;BME280;65185;21.060;105.826;2023-05-28T00:24:33;100858.13;;;28.83;79.50
76358;BME280;65185;21.060;105.826;2023-05-28T00:27:00;100848.94;;;28.87;80.24
76358;BME280;65185;21.060;105.826;2023-05-28T00:29:26;100860.22;;;28.91;80.29
76358;BME280;65185;21.060;105.826;2023-05-28T00:31:53;100858.28;;;28.93;80.72
76358;BME280;65185;21.060;105.826;2023-05-28T00:34:23;100861.78;;;28.93;80.96
76358;BME280;65185;21.060;105.826;2023-05-28T00:36:51;100863.50;;;28.94;81.37
76358;BME280;65185;21.060;105.826;2023-05-28T00:39:18;100862.16;;;29.00;81.44
76358;BME280;65185;21.060;105.826;2023-05-28T00:41:45;100861.28;;;28.99;80.78
76358;BME280;65185;21.060;105.826;2023-05-28T00:44:12;100869.91;;;29.03;80.58
76358;BME280;65185;21.060;105.826;2023-05-28T00:46:46;100866.97;;;29.06;79.54
76358;BME280;65185;21.060;105.826;2023-05-28T00:49:13;100870.28;;;29.09;80.28
76358;BME280;65185;21.060;105.826;2023-05-28T00:51:40;100879.25;;;29.08;79.57
76358;BME280;65185;21.060;105.826;2023-05-28T00:54:07;100871.13;;;29.10;78.38
76358;BME280;65185;21.060;105.826;2023-05-28T00:56:35;100880.97;;;29.09;78.46
76358;BME280;65185;21.060;105.826;2023-05-28T00:59:02;100880.56;;;29.03;77.38
76358;BME280;65185;21.060;105.826;2023-05-28T01:01:30;100884.84;;;29.05;77.76
76358;BME280;65185;21.060;105.826;2023-05-28T01:03:58;100888.22;;;29.07;77.95
76358;BME280;65185;21.060;105.826;2023-05-28T01:06:26;100893.22;;;29.12;77.55
76358;BME280;65185;21.060;105.826;2023-05-28T01:08:55;100884.72;;;29.07;77.65
76358;BME280;65185;21.060;105.826;2023-05-28T01:11:23;100900.38;;;29.11;78.15
76358;BME280;65185;21.060;105.826;2023-05-28T01:13:52;100898.06;;;29.07;77.94
76358;BME280;65185;21.060;105.826;2023-05-28T01:16:19;100906.78;;;29.09;77.98
76358;BME280;65185;21.060;105.826;2023-05-28T01:18:47;100900.28;;;29.13;78.64
76358;BME280;65185;21.060;105.826;2023-05-28T01:21:14;100904.63;;;29.14;79.03
76358;BME280;65185;21.060;105.826;2023-05-28T01:23:43;100906.81;;;29.20;78.73
76358;BME280;65185;21.060;105.826;2023-05-28T01:26:12;100909.25;;;29.23;78.20
76358;BME280;65185;21.060;105.826;2023-05-28T01:28:39;100908.75;;;29.29;79.11
76358;BME280;65185;21.060;105.826;2023-05-28T01:31:11;100913.97;;;29.30;78.50
76358;BME280;65185;21.060;105.826;2023-05-28T01:33:38;100917.13;;;29.35;78.39
76358;BME280;65185;21.060;105.826;2023-05-28T01:36:29;100914.34;;;29.37;77.93
76358;BME280;65185;21.060;105.826;2023-05-28T01:38:59;100911.31;;;29.41;78.29
76358;BME280;65185;21.060;105.826;2023-05-28T01:41:28;100910.94;;;29.46;76.65
76358;BME280;65185;21.060;105.826;2023-05-28T01:43:56;100913.38;;;29.49;77.42
76358;BME280;65185;21.060;105.826;2023-05-28T01:46:24;100899.75;;;29.52;77.37
76358;BME280;65185;21.060;105.826;2023-05-28T01:48:51;100900.00;;;29.60;76.41
76358;BME280;65185;21.060;105.826;2023-05-28T01:51:24;100897.66;;;29.67;75.30
76358;BME280;65185;21.060;105.826;2023-05-28T01:53:51;100900.59;;;29.75;75.82
76358;BME280;65185;21.060;105.826;2023-05-28T01:56:19;100894.91;;;29.79;75.32
76358;BME280;65185;21.060;105.826;2023-05-28T01:58:46;100894.50;;;29.84;75.14
76358;BME280;65185;21.060;105.826;2023-05-28T02:01:32;100901.31;;;29.88;75.83
76358;BME280;65185;21.060;105.826;2023-05-28T02:04:02;100901.19;;;29.89;75.68
76358;BME280;65185;21.060;105.826;2023-05-28T02:06:32;100896.81;;;29.88;75.20
76358;BME280;65185;21.060;105.826;2023-05-28T02:09:00;100906.16;;;29.94;75.85
76358;BME280;65185;21.060;105.826;2023-05-28T02:11:27;100901.63;;;29.94;75.72
76358;BME280;65185;21.060;105.826;2023-05-28T02:13:54;100904.44;;;29.93;74.59
76358;BME280;65185;21.060;105.826;2023-05-28T02:16:21;100903.25;;;29.86;72.71
76358;BME280;65185;21.060;105.826;2023-05-28T02:18:51;100892.44;;;29.87;73.90
76358;BME280;65185;21.060;105.826;2023-05-28T02:21:18;100897.28;;;29.93;73.72
76358;BME280;65185;21.060;105.826;2023-05-28T02:23:47;100896.66;;;30.01;72.28
76358;BME280;65185;21.060;105.826;2023-05-28T02:26:15;100902.31;;;30.07;71.47
76358;BME280;65185;21.060;105.826;2023-05-28T02:28:42;100900.00;;;30.14;70.23
76358;BME280;65185;21.060;105.826;2023-05-28T02:31:10;100914.56;;;30.21;69.04
76358;BME280;65185;21.060;105.826;2023-05-28T02:33:41;100906.81;;;30.18;67.81
76358;BME280;65185;21.060;105.826;2023-05-28T02:36:09;100897.94;;;30.17;69.02
76358;BME280;65185;21.060;105.826;2023-05-28T02:38:40;100894.63;;;30.25;67.11
76358;BME280;65185;21.060;105.826;2023-05-28T02:41:07;100887.94;;;30.30;67.44
76358;BME280;65185;21.060;105.826;2023-05-28T02:43:34;100890.06;;;30.36;67.78
76358;BME280;65185;21.060;105.826;2023-05-28T02:46:01;100886.19;;;30.40;67.82
76358;BME280;65185;21.060;105.826;2023-05-28T02:48:28;100898.81;;;30.38;69.31
76358;BME280;65185;21.060;105.826;2023-05-28T02:50:55;100899.94;;;30.36;69.48
76358;BME280;65185;21.060;105.826;2023-05-28T02:53:23;100891.94;;;30.36;69.42
76358;BME280;65185;21.060;105.826;2023-05-28T02:55:50;100894.34;;;30.39;69.38
76358;BME280;65185;21.060;105.826;2023-05-28T02:58:17;100887.47;;;30.46;68.79
76358;BME280;65185;21.060;105.826;2023-05-28T03:00:44;100887.47;;;30.46;69.63
76358;BME280;65185;21.060;105.826;2023-05-28T03:03:40;100881.16;;;30.47;69.76
76358;BME280;65185;21.060;105.826;2023-05-28T03:06:07;100882.00;;;30.48;69.91
76358;BME280;65185;21.060;105.826;2023-05-28T03:08:34;100886.38;;;30.49;69.74
76358;BME280;65185;21.060;105.826;2023-05-28T03:11:01;100876.59;;;30.59;69.35
76358;BME280;65185;21.060;105.826;2023-05-28T03:13:28;100878.59;;;30.66;68.62
76358;BME280;65185;21.060;105.826;2023-05-28T03:15:54;100875.78;;;30.68;67.84
76358;BME280;65185;21.060;105.826;2023-05-28T03:18:21;100868.50;;;30.70;67.86
76358;BME280;65185;21.060;105.826;2023-05-28T03:20:48;100870.78;;;30.74;68.36
76358;BME280;65185;21.060;105.826;2023-05-28T03:23:15;100861.13;;;30.83;68.74
76358;BME280;65185;21.060;105.826;2023-05-28T03:25:42;100865.72;;;30.81;68.14
76358;BME280;65185;21.060;105.826;2023-05-28T03:28:08;100852.34;;;30.81;67.67
76358;BME280;65185;21.060;105.826;2023-05-28T03:30:35;100856.78;;;30.82;67.96
76358;BME280;65185;21.060;105.826;2023-05-28T03:33:02;100853.09;;;30.83;67.29
76358;BME280;65185;21.060;105.826;2023-05-28T03:35:28;100851.47;;;30.91;67.44
76358;BME280;65185;21.060;105.826;2023-05-28T03:37:55;100850.63;;;30.91;67.01
76358;BME280;65185;21.060;105.826;2023-05-28T03:40:22;100847.16;;;31.00;65.66
76358;BME280;65185;21.060;105.826;2023-05-28T03:42:49;100843.25;;;31.13;65.85
76358;BME280;65185;21.060;105.826;2023-05-28T03:45:16;100850.16;;;31.16;65.66
76358;BME280;65185;21.060;105.826;2023-05-28T03:47:43;100845.63;;;31.07;65.97
76358;BME280;65185;21.060;105.826;2023-05-28T03:50:10;100833.03;;;30.98;65.86
76358;BME280;65185;21.060;105.826;2023-05-28T03:52:37;100834.84;;;30.88;66.54
76358;BME280;65185;21.060;105.826;2023-05-28T03:55:04;100826.59;;;30.80;68.09
76358;BME280;65185;21.060;105.826;2023-05-28T03:57:31;100830.50;;;30.76;68.08
76358;BME280;65185;21.060;105.826;2023-05-28T03:59:58;100822.91;;;30.71;68.46
76358;BME280;65185;21.060;105.826;2023-05-28T04:02:25;100808.91;;;30.68;68.60
76358;BME280;65185;21.060;105.826;2023-05-28T04:04:51;100816.84;;;30.69;68.74
76358;BME280;65185;21.060;105.826;2023-05-28T04:07:18;100813.50;;;30.77;69.26
76358;BME280;65185;21.060;105.826;2023-05-28T04:09:46;100819.44;;;30.80;70.01
76358;BME280;65185;21.060;105.826;2023-05-28T04:12:13;100805.28;;;30.89;69.12
76358;BME280;65185;21.060;105.826;2023-05-28T04:14:40;100809.56;;;31.11;67.97
76358;BME280;65185;21.060;105.826;2023-05-28T04:17:11;100813.53;;;31.16;66.23
76358;BME280;65185;21.060;105.826;2023-05-28T04:19:39;100801.28;;;31.23;66.74
76358;BME280;65185;21.060;105.826;2023-05-28T04:22:07;100799.50;;;31.33;67.20
76358;BME280;65185;21.060;105.826;2023-05-28T04:24:34;100792.63;;;31.41;66.66
76358;BME280;65185;21.060;105.826;2023-05-28T04:27:01;100803.38;;;31.50;66.22
76358;BME280;65185;21.060;105.826;2023-05-28T04:29:27;100794.31;;;31.51;64.70
76358;BME280;65185;21.060;105.826;2023-05-28T04:31:58;100792.22;;;31.55;66.13
76358;BME280;65185;21.060;105.826;2023-05-28T04:34:25;100786.00;;;31.54;65.76
76358;BME280;65185;21.060;105.826;2023-05-28T04:36:53;100791.66;;;31.51;66.02
76358;BME280;65185;21.060;105.826;2023-05-28T04:39:22;100790.09;;;31.49;66.17
76358;BME280;65185;21.060;105.826;2023-05-28T04:41:49;100788.56;;;31.56;65.43
76358;BME280;65185;21.060;105.826;2023-05-28T04:44:17;100787.00;;;31.53;64.96
76358;BME280;65185;21.060;105.826;2023-05-28T04:46:44;100784.19;;;31.55;64.59
76358;BME280;65185;21.060;105.826;2023-05-28T04:49:11;100776.44;;;31.61;64.54
76358;BME280;65185;21.060;105.826;2023-05-28T04:51:38;100769.38;;;31.70;64.31
76358;BME280;65185;21.060;105.826;2023-05-28T04:54:06;100770.78;;;31.64;64.16
76358;BME280;65185;21.060;105.826;2023-05-28T04:56:32;100769.09;;;31.82;63.89
76358;BME280;65185;21.060;105.826;2023-05-28T04:58:59;100761.25;;;31.90;63.23
76358;BME280;65185;21.060;105.826;2023-05-28T05:01:26;100752.47;;;31.88;62.48
76358;BME280;65185;21.060;105.826;2023-05-28T05:03:53;100745.16;;;32.00;61.89
76358;BME280;65185;21.060;105.826;2023-05-28T05:06:20;100740.78;;;31.89;61.99
76358;BME280;65185;21.060;105.826;2023-05-28T05:08:47;100730.59;;;32.02;62.80
76358;BME280;65185;21.060;105.826;2023-05-28T05:11:14;100733.69;;;31.88;63.31
76358;BME280;65185;21.060;105.826;2023-05-28T05:13:41;100724.41;;;31.83;63.22
76358;BME280;65185;21.060;105.826;2023-05-28T05:16:08;100720.88;;;31.73;63.58
76358;BME280;65185;21.060;105.826;2023-05-28T05:18:34;100705.94;;;31.61;64.23
76358;BME280;65185;21.060;105.826;2023-05-28T05:21:01;100702.56;;;31.59;64.42
76358;BME280;65185;21.060;105.826;2023-05-28T05:23:28;100701.59;;;31.50;64.92
76358;BME280;65185;21.060;105.826;2023-05-28T05:25:55;100700.41;;;31.43;65.37
76358;BME280;65185;21.060;105.826;2023-05-28T05:28:22;100700.72;;;31.40;65.35
76358;BME280;65185;21.060;105.826;2023-05-28T05:30:48;100705.63;;;31.35;65.82
76358;BME280;65185;21.060;105.826;2023-05-28T05:33:16;100705.50;;;31.36;66.75
76358;BME280;65185;21.060;105.826;2023-05-28T05:35:42;100700.56;;;31.42;65.23
76358;BME280;65185;21.060;105.826;2023-05-28T05:38:09;100711.72;;;31.56;65.85
76358;BME280;65185;21.060;105.826;2023-05-28T05:40:36;100713.13;;;31.51;66.89
76358;BME280;65185;21.060;105.826;2023-05-28T05:43:03;100714.41;;;31.47;67.01
76358;BME280;65185;21.060;105.826;2023-05-28T05:45:30;100712.69;;;31.46;66.53
76358;BME280;65185;21.060;105.826;2023-05-28T05:47:57;100703.09;;;31.43;66.20
76358;BME280;65185;21.060;105.826;2023-05-28T05:50:23;100703.25;;;31.42;65.82
76358;BME280;65185;21.060;105.826;2023-05-28T05:52:50;100699.47;;;31.44;66.04
76358;BME280;65185;21.060;105.826;2023-05-28T05:55:23;100696.47;;;31.47;66.42
76358;BME280;65185;21.060;105.826;2023-05-28T05:57:50;100698.91;;;31.50;66.74
76358;BME280;65185;21.060;105.826;2023-05-28T06:00:17;100688.19;;;31.50;66.15
76358;BME280;65185;21.060;105.826;2023-05-28T06:02:43;100690.00;;;31.50;65.78
76358;BME280;65185;21.060;105.826;2023-05-28T06:05:10;100677.28;;;31.71;64.76
76358;BME280;65185;21.060;105.826;2023-05-28T06:07:37;100678.84;;;31.64;64.67
76358;BME280;65185;21.060;105.826;2023-05-28T06:10:07;100668.84;;;31.66;65.13
76358;BME280;65185;21.060;105.826;2023-05-28T06:12:34;100661.66;;;31.66;64.75
76358;BME280;65185;21.060;105.826;2023-05-28T06:15:01;100653.31;;;31.69;65.28
76358;BME280;65185;21.060;105.826;2023-05-28T06:17:31;100666.00;;;31.77;64.54
76358;BME280;65185;21.060;105.826;2023-05-28T06:19:59;100658.81;;;31.77;63.72
76358;BME280;65185;21.060;105.826;2023-05-28T06:22:26;100657.53;;;31.81;63.56
76358;BME280;65185;21.060;105.826;2023-05-28T06:24:53;100642.03;;;31.85;62.57
76358;BME280;65185;21.060;105.826;2023-05-28T06:27:22;100644.41;;;31.97;62.14
76358;BME280;65185;21.060;105.826;2023-05-28T06:29:49;100625.06;;;32.03;62.60
76358;BME280;65185;21.060;105.826;2023-05-28T06:32:17;100625.50;;;31.99;62.22
76358;BME280;65185;21.060;105.826;2023-05-28T06:34:43;100616.47;;;32.00;62.31
76358;BME280;65185;21.060;105.826;2023-05-28T06:37:11;100608.00;;;31.95;62.19
76358;BME280;65185;21.060;105.826;2023-05-28T06:39:38;100605.47;;;31.93;62.13
76358;BME280;65185;21.060;105.826;2023-05-28T06:42:04;100593.63;;;31.96;61.67
76358;BME280;65185;21.060;105.826;2023-05-28T06:44:33;100595.78;;;31.92;61.85
76358;BME280;65185;21.060;105.826;2023-05-28T06:47:00;100591.53;;;31.90;62.64
76358;BME280;65185;21.060;105.826;2023-05-28T06:49:27;100593.09;;;31.92;62.50
76358;BME280;65185;21.060;105.826;2023-05-28T06:51:54;100591.66;;;31.88;62.54
76358;BME280;65185;21.060;105.826;2023-05-28T06:54:21;100592.50;;;31.89;61.61
76358;BME280;65185;21.060;105.826;2023-05-28T06:56:48;100586.28;;;31.88;61.99
76358;BME280;65185;21.060;105.826;2023-05-28T06:59:18;100581.75;;;31.98;61.20
76358;BME280;65185;21.060;105.826;2023-05-28T07:01:45;100577.41;;;31.97;62.83
76358;BME280;65185;21.060;105.826;2023-05-28T07:04:11;100580.38;;;31.94;62.61
76358;BME280;65185;21.060;105.826;2023-05-28T07:06:38;100579.53;;;31.94;63.26
76358;BME280;65185;21.060;105.826;2023-05-28T07:09:06;100571.75;;;31.91;62.14
76358;BME280;65185;21.060;105.826;2023-05-28T07:11:32;100570.22;;;31.88;62.94
76358;BME280;65185;21.060;105.826;2023-05-28T07:13:59;100576.69;;;31.86;63.65
76358;BME280;65185;21.060;105.826;2023-05-28T07:16:26;100564.31;;;31.85;62.27
76358;BME280;65185;21.060;105.826;2023-05-28T07:18:52;100557.53;;;31.81;62.23
76358;BME280;65185;21.060;105.826;2023-05-28T07:21:19;100556.13;;;31.77;62.76
76358;BME280;65185;21.060;105.826;2023-05-28T07:23:46;100561.66;;;31.75;62.01
76358;BME280;65185;21.060;105.826;2023-05-28T07:26:13;100552.91;;;31.73;61.32
76358;BME280;65185;21.060;105.826;2023-05-28T07:28:40;100560.81;;;31.75;60.24
76358;BME280;65185;21.060;105.826;2023-05-28T07:31:06;100547.38;;;31.84;58.16
76358;BME280;65185;21.060;105.826;2023-05-28T07:33:33;100547.06;;;31.87;58.28
76358;BME280;65185;21.060;105.826;2023-05-28T07:36:00;100545.69;;;31.83;59.28
76358;BME280;65185;21.060;105.826;2023-05-28T07:38:28;100541.59;;;31.89;60.66
76358;BME280;65185;21.060;105.826;2023-05-28T07:40:55;100531.28;;;31.94;60.06
76358;BME280;65185;21.060;105.826;2023-05-28T07:43:22;100528.31;;;31.87;57.73
76358;BME280;65185;21.060;105.826;2023-05-28T07:45:49;100536.66;;;31.94;57.28
76358;BME280;65185;21.060;105.826;2023-05-28T07:48:16;100530.44;;;31.93;59.45
76358;BME280;65185;21.060;105.826;2023-05-28T07:50:44;100518.28;;;31.99;60.49
76358;BME280;65185;21.060;105.826;2023-05-28T07:53:10;100526.72;;;32.04;61.99
76358;BME280;65185;21.060;105.826;2023-05-28T07:55:38;100522.34;;;32.03;61.45
76358;BME280;65185;21.060;105.826;2023-05-28T07:58:05;100518.81;;;32.02;65.12
76358;BME280;65185;21.060;105.826;2023-05-28T08:00:32;100520.38;;;32.05;64.79
76358;BME280;65185;21.060;105.826;2023-05-28T08:02:59;100513.06;;;31.97;66.27
76358;BME280;65185;21.060;105.826;2023-05-28T08:05:26;100524.25;;;31.83;67.05
76358;BME280;65185;21.060;105.826;2023-05-28T08:07:53;100519.47;;;31.77;68.03
76358;BME280;65185;21.060;105.826;2023-05-28T08:10:20;100516.69;;;31.69;68.20
76358;BME280;65185;21.060;105.826;2023-05-28T08:12:47;100517.56;;;31.60;69.08
76358;BME280;65185;21.060;105.826;2023-05-28T08:15:14;100505.59;;;31.55;70.02
76358;BME280;65185;21.060;105.826;2023-05-28T08:17:42;100518.00;;;31.56;70.13
76358;BME280;65185;21.060;105.826;2023-05-28T08:20:09;100509.53;;;31.51;70.34
76358;BME280;65185;21.060;105.826;2023-05-28T08:22:38;100510.69;;;31.48;70.89
76358;BME280;65185;21.060;105.826;2023-05-28T08:25:06;100511.97;;;31.44;71.11
76358;BME280;65185;21.060;105.826;2023-05-28T08:27:34;100502.38;;;31.42;71.08
76358;BME280;65185;21.060;105.826;2023-05-28T08:30:02;100500.97;;;31.37;71.24
76358;BME280;65185;21.060;105.826;2023-05-28T08:32:29;100503.06;;;31.34;70.69
76358;BME280;65185;21.060;105.826;2023-05-28T08:34:56;100502.81;;;31.27;70.46
76358;BME280;65185;21.060;105.826;2023-05-28T08:37:23;100500.56;;;31.23;70.28
76358;BME280;65185;21.060;105.826;2023-05-28T08:39:50;100507.22;;;31.19;69.74
76358;BME280;65185;21.060;105.826;2023-05-28T08:42:17;100503.00;;;31.16;70.08
76358;BME280;65185;21.060;105.826;2023-05-28T08:44:44;100505.66;;;31.16;70.07
76358;BME280;65185;21.060;105.826;2023-05-28T08:47:13;100497.63;;;31.16;69.92
76358;BME280;65185;21.060;105.826;2023-05-28T08:49:52;100505.97;;;31.13;69.54
76358;BME280;65185;21.060;105.826;2023-05-28T08:52:20;100498.03;;;31.12;69.53
76358;BME280;65185;21.060;105.826;2023-05-28T08:54:49;100496.22;;;31.12;69.12
76358;BME280;65185;21.060;105.826;2023-05-28T08:57:17;100495.38;;;31.12;69.28
76358;BME280;65185;21.060;105.826;2023-05-28T08:59:47;100491.03;;;31.11;68.63
76358;BME280;65185;21.060;105.826;2023-05-28T09:02:14;100498.19;;;31.10;68.44
76358;BME280;65185;21.060;105.826;2023-05-28T09:04:41;100494.81;;;31.08;69.53
76358;BME280;65185;21.060;105.826;2023-05-28T09:07:12;100494.09;;;31.06;68.76
76358;BME280;65185;21.060;105.826;2023-05-28T09:09:40;100495.97;;;31.06;69.36
76358;BME280;65185;21.060;105.826;2023-05-28T09:12:19;100502.28;;;31.05;68.79
76358;BME280;65185;21.060;105.826;2023-05-28T09:14:50;100497.94;;;31.04;68.84
76358;BME280;65185;21.060;105.826;2023-05-28T09:17:32;100494.56;;;31.02;68.78
76358;BME280;65185;21.060;105.826;2023-05-28T09:19:59;100487.66;;;30.99;69.67
76358;BME280;65185;21.060;105.826;2023-05-28T09:22:29;100492.16;;;30.99;69.28
76358;BME280;65185;21.060;105.826;2023-05-28T09:25:00;100496.81;;;30.97;69.13
76358;BME280;65185;21.060;105.826;2023-05-28T09:27:27;100486.22;;;30.95;69.44
76358;BME280;65185;21.060;105.826;2023-05-28T09:29:55;100479.34;;;30.93;69.05
76358;BME280;65185;21.060;105.826;2023-05-28T09:32:22;100490.31;;;30.90;69.31
76358;BME280;65185;21.060;105.826;2023-05-28T09:34:50;100483.16;;;30.90;69.68
76358;BME280;65185;21.060;105.826;2023-05-28T09:37:17;100487.66;;;30.90;69.35
76358;BME280;65185;21.060;105.826;2023-05-28T09:39:44;100489.34;;;30.91;68.60
76358;BME280;65185;21.060;105.826;2023-05-28T09:42:12;100491.19;;;30.90;69.57
76358;BME280;65185;21.060;105.826;2023-05-28T09:44:41;100484.97;;;30.90;70.20
76358;BME280;65185;21.060;105.826;2023-05-28T09:47:14;100489.34;;;30.91;69.98
76358;BME280;65185;21.060;105.826;2023-05-28T09:49:46;100487.53;;;30.91;70.05
76358;BME280;65185;21.060;105.826;2023-05-28T09:52:18;100490.06;;;30.93;69.93
76358;BME280;65185;21.060;105.826;2023-05-28T09:54:52;100483.00;;;30.92;70.60
76358;BME280;65185;21.060;105.826;2023-05-28T09:57:26;100496.22;;;30.93;70.77
76358;BME280;65185;21.060;105.826;2023-05-28T09:59:56;100488.09;;;30.95;69.84
76358;BME280;65185;21.060;105.826;2023-05-28T10:04:56;100490.06;;;30.93;70.37
76358;BME280;65185;21.060;105.826;2023-05-28T10:07:26;100495.81;;;30.98;69.78
76358;BME280;65185;21.060;105.826;2023-05-28T10:09:56;100494.09;;;31.25;68.77
76358;BME280;65185;21.060;105.826;2023-05-28T10:12:27;100495.66;;;31.28;69.50
76358;BME280;65185;21.060;105.826;2023-05-28T10:14:56;100499.03;;;31.30;69.24
76358;BME280;65185;21.060;105.826;2023-05-28T10:17:24;100497.72;;;31.34;68.98
76358;BME280;65185;21.060;105.826;2023-05-28T10:19:51;100491.25;;;31.27;70.12
76358;BME280;65185;21.060;105.826;2023-05-28T10:22:18;100491.09;;;31.28;69.08
76358;BME280;65185;21.060;105.826;2023-05-28T10:24:46;100491.25;;;31.27;68.59
76358;BME280;65185;21.060;105.826;2023-05-28T10:27:14;100495.66;;;31.28;68.24
76358;BME280;65185;21.060;105.826;2023-05-28T10:29:42;100497.63;;;31.26;68.17
76358;BME280;65185;21.060;105.826;2023-05-28T10:32:16;100510.56;;;31.30;68.64
76358;BME280;65185;21.060;105.826;2023-05-28T10:34:44;100512.84;;;31.16;68.86
76358;BME280;65185;21.060;105.826;2023-05-28T10:37:12;100521.44;;;31.19;69.10
76358;BME280;65185;21.060;105.826;2023-05-28T10:39:46;100531.31;;;31.19;68.46
76358;BME280;65185;21.060;105.826;2023-05-28T10:42:17;100524.97;;;31.10;68.41
76358;BME280;65185;21.060;105.826;2023-05-28T10:45:06;100524.09;;;31.10;68.07
76358;BME280;65185;21.060;105.826;2023-05-28T10:47:36;100528.19;;;31.14;68.15
76358;BME280;65185;21.060;105.826;2023-05-28T10:50:13;100530.72;;;31.15;68.47
76358;BME280;65185;21.060;105.826;2023-05-28T10:52:40;100538.50;;;31.18;68.17
76358;BME280;65185;21.060;105.826;2023-05-28T10:55:09;100535.66;;;31.20;67.54
76358;BME280;65185;21.060;105.826;2023-05-28T10:57:48;100537.34;;;31.21;68.59
76358;BME280;65185;21.060;105.826;2023-05-28T11:00:23;100523.69;;;31.24;68.93
76358;BME280;65185;21.060;105.826;2023-05-28T11:02:54;100525.50;;;31.23;68.55
76358;BME280;65185;21.060;105.826;2023-05-28T11:05:25;100528.50;;;31.20;68.77
76358;BME280;65185;21.060;105.826;2023-05-28T11:07:54;100530.72;;;31.15;69.24
76358;BME280;65185;21.060;105.826;2023-05-28T11:10:24;100534.97;;;31.08;69.93
76358;BME280;65185;21.060;105.826;2023-05-28T11:12:54;100543.69;;;31.01;70.95
76358;BME280;65185;21.060;105.826;2023-05-28T11:15:21;100551.63;;;30.93;71.11
76358;BME280;65185;21.060;105.826;2023-05-28T11:17:49;100561.91;;;30.88;70.93
76358;BME280;65185;21.060;105.826;2023-05-28T11:20:22;100560.19;;;30.87;70.61
76358;BME280;65185;21.060;105.826;2023-05-28T11:22:54;100552.47;;;30.84;70.82
76358;BME280;65185;21.060;105.826;2023-05-28T11:25:22;100556.09;;;30.83;70.57
76358;BME280;65185;21.060;105.826;2023-05-28T11:27:53;100565.34;;;30.79;70.43
76358;BME280;65185;21.060;105.826;2023-05-28T11:30:24;100567.34;;;30.77;71.69
76358;BME280;65185;21.060;105.826;2023-05-28T11:32:51;100570.03;;;30.77;72.17
76358;BME280;65185;21.060;105.826;2023-05-28T11:35:20;100570.28;;;30.74;71.52
76358;BME280;65185;21.060;105.826;2023-05-28T11:37:47;100563.41;;;30.71;71.48
76358;BME280;65185;21.060;105.826;2023-05-28T11:40:15;100570.56;;;30.71;70.83
76358;BME280;65185;21.060;105.826;2023-05-28T11:42:43;100567.19;;;30.69;70.96
76358;BME280;65185;21.060;105.826;2023-05-28T11:45:12;100570.00;;;30.67;70.83
76358;BME280;65185;21.060;105.826;2023-05-28T11:47:39;100570.25;;;30.64;71.16
76358;BME280;65185;21.060;105.826;2023-05-28T11:50:13;100575.75;;;30.63;71.81
76358;BME280;65185;21.060;105.826;2023-05-28T11:52:41;100578.56;;;30.61;71.86
76358;BME280;65185;21.060;105.826;2023-05-28T11:55:09;100576.91;;;30.60;71.80
76358;BME280;65185;21.060;105.826;2023-05-28T11:57:36;100578.16;;;30.75;71.37
76358;BME280;65185;21.060;105.826;2023-05-28T12:00:08;100588.06;;;30.84;70.78
76358;BME280;65185;21.060;105.826;2023-05-28T12:02:45;100583.41;;;30.86;71.64
76358;BME280;65185;21.060;105.826;2023-05-28T12:05:13;100580.03;;;30.84;71.39
76358;BME280;65185;21.060;105.826;2023-05-28T12:07:52;100578.88;;;30.77;71.61
76358;BME280;65185;21.060;105.826;2023-05-28T12:10:27;100589.00;;;30.74;72.22
76358;BME280;65185;21.060;105.826;2023-05-28T12:12:57;100587.19;;;30.74;72.49
76358;BME280;65185;21.060;105.826;2023-05-28T12:15:28;100590.72;;;30.75;72.07
76358;BME280;65185;21.060;105.826;2023-05-28T12:18:00;100589.44;;;30.69;72.75
76358;BME280;65185;21.060;105.826;2023-05-28T12:20:31;100600.72;;;30.73;72.96
76358;BME280;65185;21.060;105.826;2023-05-28T12:23:06;100597.19;;;30.72;72.84
76358;BME280;65185;21.060;105.826;2023-05-28T12:28:10;100610.00;;;30.69;73.61
76358;BME280;65185;21.060;105.826;2023-05-28T12:30:41;100610.41;;;30.55;73.67
76358;BME280;65185;21.060;105.826;2023-05-28T12:33:10;100614.00;;;30.44;74.04
76358;BME280;65185;21.060;105.826;2023-05-28T12:35:37;100623.41;;;30.38;74.83
76358;BME280;65185;21.060;105.826;2023-05-28T12:38:04;100626.22;;;30.37;75.13
76358;BME280;65185;21.060;105.826;2023-05-28T12:40:31;100630.16;;;30.33;75.43